Aviation Digital Data Service (ADDS)

Output produced by METARs form (0858 UTC 26 January 2020)
found at http://www.aviationweather.gov/metar/data/
 
Forecast for: LUKK (CHISINAU INTL , MD)
Text: TAF LUKK 260520Z 2606/2706 29006KT CAVOK
Forecast period: 0600 to 1400 UTC 26 January 2020
Forecast type: FROM: standard forecast or significant change
Winds: from the WNW (290 degrees) at 7 MPH (6 knots; 3.1 m/s)
Visibility: 6 or more miles 10+ km)
Ceiling: unknown
Clouds: missing
Weather: NSW  (no significant weather)
Text: BECMG 2614/2616 15005KT
Forecast period: 1400 to 1900 UTC 26 January 2020
Forecast type: BECOMING: Conditions expected to become as follows by 1600 UTC 26 January 2020
Winds: from the SSE (150 degrees) at 6 MPH (5 knots; 2.6 m/s)
Visibility: 6 or more miles 10+ km)
Ceiling: unknown
Clouds: missing
Weather: NSW  (no significant weather)
Text: BECMG 2619/2621 4000 BR
Forecast period: 1900 UTC 26 January 2020 to 0600 UTC 27 January 2020
Forecast type: BECOMING: Conditions expected to become as follows by 2100 UTC 26 January 2020
Winds: from the SSE (150 degrees) at 6 MPH (5 knots; 2.6 m/s)
Visibility: 2.49 miles (4.01 km)
Ceiling: unknown
Clouds: missing
Weather: BR  (mist)
Text: TEMPO 2702/2706 0400 FZFG VV///
Forecast period: 0200 to 0600 UTC 27 January 2020
Forecast type: TEMPORARY: The following changes expected for less than half the time period
Visibility: 0.25 miles (0.40 km)
Ceiling: unknown
Clouds: missing
Weather: FZFG  (freezing fog)